sensor_id;sensor_type;location;lat;lon;timestamp;temperature;humidity
36690;DHT22;22676;51.120;3.702;2023-01-10T00:01:57;24.70;41.80
36690;DHT22;22676;51.120;3.702;2023-01-10T00:04:22;24.70;41.80
36690;DHT22;22676;51.120;3.702;2023-01-10T00:06:50;24.70;41.90
36690;DHT22;22676;51.120;3.702;2023-01-10T00:09:16;24.70;41.70
36690;DHT22;22676;51.120;3.702;2023-01-10T00:11:41;24.70;42.00
36690;DHT22;22676;51.120;3.702;2023-01-10T00:14:26;24.70;41.80
36690;DHT22;22676;51.120;3.702;2023-01-10T00:16:53;24.60;42.20
36690;DHT22;22676;51.120;3.702;2023-01-10T00:19:18;24.70;42.00
36690;DHT22;22676;51.120;3.702;2023-01-10T00:21:44;24.70;41.60
36690;DHT22;22676;51.120;3.702;2023-01-10T00:24:10;24.70;41.70
36690;DHT22;22676;51.120;3.702;2023-01-10T00:26:47;24.70;41.80
36690;DHT22;22676;51.120;3.702;2023-01-10T00:29:19;24.70;41.80
36690;DHT22;22676;51.120;3.702;2023-01-10T00:31:45;24.60;41.30
36690;DHT22;22676;51.120;3.702;2023-01-10T00:34:10;24.60;41.70
36690;DHT22;22676;51.120;3.702;2023-01-10T00:36:36;24.60;41.70
36690;DHT22;22676;51.120;3.702;2023-01-10T00:39:02;24.50;41.80
36690;DHT22;22676;51.120;3.702;2023-01-10T00:41:27;24.50;41.60
36690;DHT22;22676;51.120;3.702;2023-01-10T00:44:12;24.40;42.00
36690;DHT22;22676;51.120;3.702;2023-01-10T00:46:37;24.40;42.00
36690;DHT22;22676;51.120;3.702;2023-01-10T00:49:03;24.30;42.10
36690;DHT22;22676;51.120;3.702;2023-01-10T00:51:36;24.30;42.10
36690;DHT22;22676;51.120;3.702;2023-01-10T00:54:02;24.20;42.20
36690;DHT22;22676;51.120;3.702;2023-01-10T00:56:27;24.20;42.60
36690;DHT22;22676;51.120;3.702;2023-01-10T00:58:53;24.20;42.30
36690;DHT22;22676;51.120;3.702;2023-01-10T01:01:18;24.10;42.50
36690;DHT22;22676;51.120;3.702;2023-01-10T01:03:44;24.10;42.40
36690;DHT22;22676;51.120;3.702;2023-01-10T01:06:09;24.00;42.50
36690;DHT22;22676;51.120;3.702;2023-01-10T01:08:35;23.90;42.80
36690;DHT22;22676;51.120;3.702;2023-01-10T01:11:00;23.90;42.90
36690;DHT22;22676;51.120;3.702;2023-01-10T01:13:26;23.90;42.80
36690;DHT22;22676;51.120;3.702;2023-01-10T01:15:52;23.80;42.90
36690;DHT22;22676;51.120;3.702;2023-01-10T01:18:18;23.80;42.90
36690;DHT22;22676;51.120;3.702;2023-01-10T01:20:45;23.80;42.70
36690;DHT22;22676;51.120;3.702;2023-01-10T01:23:12;23.80;42.80
36690;DHT22;22676;51.120;3.702;2023-01-10T01:25:37;23.70;42.70
36690;DHT22;22676;51.120;3.702;2023-01-10T01:28:03;23.80;42.80
36690;DHT22;22676;51.120;3.702;2023-01-10T01:30:29;23.80;42.70
36690;DHT22;22676;51.120;3.702;2023-01-10T01:32:54;23.70;42.50
36690;DHT22;22676;51.120;3.702;2023-01-10T01:35:20;23.70;42.90
36690;DHT22;22676;51.120;3.702;2023-01-10T01:37:45;23.70;42.80
36690;DHT22;22676;51.120;3.702;2023-01-10T01:40:14;23.60;42.90
36690;DHT22;22676;51.120;3.702;2023-01-10T01:42:40;23.60;42.70
36690;DHT22;22676;51.120;3.702;2023-01-10T01:47:48;23.60;42.50
36690;DHT22;22676;51.120;3.702;2023-01-10T01:50:24;23.60;42.60
36690;DHT22;22676;51.120;3.702;2023-01-10T01:52:53;23.50;42.70
36690;DHT22;22676;51.120;3.702;2023-01-10T01:55:19;23.40;42.80
36690;DHT22;22676;51.120;3.702;2023-01-10T01:57:45;23.40;43.00
36690;DHT22;22676;51.120;3.702;2023-01-10T02:00:11;23.40;43.20
36690;DHT22;22676;51.120;3.702;2023-01-10T02:02:38;23.40;43.30
36690;DHT22;22676;51.120;3.702;2023-01-10T02:05:10;23.40;43.30
36690;DHT22;22676;51.120;3.702;2023-01-10T02:07:38;23.30;43.20
36690;DHT22;22676;51.120;3.702;2023-01-10T02:12:30;23.40;42.80
36690;DHT22;22676;51.120;3.702;2023-01-10T02:14:56;23.40;42.90
36690;DHT22;22676;51.120;3.702;2023-01-10T02:17:22;23.40;43.10
36690;DHT22;22676;51.120;3.702;2023-01-10T02:32:44;23.30;43.70
36690;DHT22;22676;51.120;3.702;2023-01-10T02:35:30;23.20;43.30
36690;DHT22;22676;51.120;3.702;2023-01-10T02:38:03;23.30;43.10
36690;DHT22;22676;51.120;3.702;2023-01-10T02:43:36;23.20;42.90
36690;DHT22;22676;51.120;3.702;2023-01-10T02:46:10;23.30;42.70
36690;DHT22;22676;51.120;3.702;2023-01-10T02:48:38;23.20;42.70
36690;DHT22;22676;51.120;3.702;2023-01-10T02:51:08;23.20;42.90
36690;DHT22;22676;51.120;3.702;2023-01-10T02:53:40;23.20;43.00
36690;DHT22;22676;51.120;3.702;2023-01-10T03:01:20;23.10;43.20
36690;DHT22;22676;51.120;3.702;2023-01-10T03:03:51;23.10;42.80
36690;DHT22;22676;51.120;3.702;2023-01-10T03:08:49;23.00;43.10
36690;DHT22;22676;51.120;3.702;2023-01-10T03:11:15;23.00;43.10
36690;DHT22;22676;51.120;3.702;2023-01-10T03:13:49;23.10;43.00
36690;DHT22;22676;51.120;3.702;2023-01-10T03:16:18;23.10;42.90
36690;DHT22;22676;51.120;3.702;2023-01-10T03:18:50;23.10;42.50
36690;DHT22;22676;51.120;3.702;2023-01-10T03:21:16;23.10;43.10
36690;DHT22;22676;51.120;3.702;2023-01-10T03:23:43;23.10;42.80
36690;DHT22;22676;51.120;3.702;2023-01-10T03:26:09;23.10;43.00
36690;DHT22;22676;51.120;3.702;2023-01-10T03:28:48;23.10;43.10
36690;DHT22;22676;51.120;3.702;2023-01-10T03:31:29;23.00;42.70
36690;DHT22;22676;51.120;3.702;2023-01-10T03:33:56;23.00;42.60
36690;DHT22;22676;51.120;3.702;2023-01-10T03:41:53;23.00;42.90
36690;DHT22;22676;51.120;3.702;2023-01-10T03:49:32;22.90;43.10
36690;DHT22;22676;51.120;3.702;2023-01-10T03:51:58;22.90;43.00
36690;DHT22;22676;51.120;3.702;2023-01-10T03:54:24;22.90;42.80
36690;DHT22;22676;51.120;3.702;2023-01-10T03:56:50;22.90;42.70
36690;DHT22;22676;51.120;3.702;2023-01-10T03:59:20;22.90;42.60
36690;DHT22;22676;51.120;3.702;2023-01-10T04:01:47;22.90;42.80
36690;DHT22;22676;51.120;3.702;2023-01-10T04:04:12;22.90;42.60
36690;DHT22;22676;51.120;3.702;2023-01-10T04:06:38;22.90;42.90
36690;DHT22;22676;51.120;3.702;2023-01-10T04:09:03;22.90;42.60
36690;DHT22;22676;51.120;3.702;2023-01-10T04:11:29;22.80;42.80
36690;DHT22;22676;51.120;3.702;2023-01-10T04:13:54;22.90;42.80
36690;DHT22;22676;51.120;3.702;2023-01-10T04:16:20;22.90;42.50
36690;DHT22;22676;51.120;3.702;2023-01-10T04:18:45;22.90;42.60
36690;DHT22;22676;51.120;3.702;2023-01-10T04:21:11;22.90;42.70
36690;DHT22;22676;51.120;3.702;2023-01-10T04:23:36;22.80;42.90
36690;DHT22;22676;51.120;3.702;2023-01-10T04:26:02;22.80;42.60
36690;DHT22;22676;51.120;3.702;2023-01-10T04:28:28;22.80;42.70
36690;DHT22;22676;51.120;3.702;2023-01-10T04:30:53;22.80;42.90
36690;DHT22;22676;51.120;3.702;2023-01-10T04:33:19;22.70;43.20
36690;DHT22;22676;51.120;3.702;2023-01-10T04:35:48;22.70;43.00
36690;DHT22;22676;51.120;3.702;2023-01-10T04:38:13;22.70;42.90
36690;DHT22;22676;51.120;3.702;2023-01-10T04:40:40;22.70;43.20
36690;DHT22;22676;51.120;3.702;2023-01-10T04:43:05;22.70;42.90
36690;DHT22;22676;51.120;3.702;2023-01-10T04:45:31;22.70;43.40
36690;DHT22;22676;51.120;3.702;2023-01-10T04:47:56;22.70;42.90
36690;DHT22;22676;51.120;3.702;2023-01-10T04:50:24;22.70;42.90
36690;DHT22;22676;51.120;3.702;2023-01-10T04:52:50;22.70;43.00
36690;DHT22;22676;51.120;3.702;2023-01-10T04:55:15;22.70;42.80
36690;DHT22;22676;51.120;3.702;2023-01-10T04:57:41;22.70;42.90
36690;DHT22;22676;51.120;3.702;2023-01-10T05:00:07;22.70;42.90
36690;DHT22;22676;51.120;3.702;2023-01-10T05:02:32;22.60;42.80
36690;DHT22;22676;51.120;3.702;2023-01-10T05:04:58;22.70;43.00
36690;DHT22;22676;51.120;3.702;2023-01-10T05:07:24;22.70;42.70
36690;DHT22;22676;51.120;3.702;2023-01-10T05:09:49;22.60;42.90
36690;DHT22;22676;51.120;3.702;2023-01-10T05:12:15;22.60;43.10
36690;DHT22;22676;51.120;3.702;2023-01-10T05:14:40;22.60;43.00
36690;DHT22;22676;51.120;3.702;2023-01-10T05:17:06;22.60;43.10
36690;DHT22;22676;51.120;3.702;2023-01-10T05:19:31;22.50;43.00
36690;DHT22;22676;51.120;3.702;2023-01-10T05:21:57;22.60;43.10
36690;DHT22;22676;51.120;3.702;2023-01-10T05:24:22;22.60;43.10
36690;DHT22;22676;51.120;3.702;2023-01-10T05:26:48;22.60;42.80
36690;DHT22;22676;51.120;3.702;2023-01-10T05:29:13;22.60;42.70
36690;DHT22;22676;51.120;3.702;2023-01-10T05:31:39;22.60;43.20
36690;DHT22;22676;51.120;3.702;2023-01-10T05:34:05;22.50;42.90
36690;DHT22;22676;51.120;3.702;2023-01-10T05:36:30;22.50;42.90
36690;DHT22;22676;51.120;3.702;2023-01-10T05:38:56;22.50;43.10
36690;DHT22;22676;51.120;3.702;2023-01-10T05:41:21;22.50;43.20
36690;DHT22;22676;51.120;3.702;2023-01-10T05:43:48;22.50;43.20
36690;DHT22;22676;51.120;3.702;2023-01-10T05:46:13;22.60;43.10
36690;DHT22;22676;51.120;3.702;2023-01-10T05:48:39;22.60;43.10
36690;DHT22;22676;51.120;3.702;2023-01-10T05:51:05;22.60;43.10
36690;DHT22;22676;51.120;3.702;2023-01-10T05:53:31;22.60;43.70
36690;DHT22;22676;51.120;3.702;2023-01-10T05:56:00;22.60;43.90
36690;DHT22;22676;51.120;3.702;2023-01-10T05:58:26;22.60;43.80
36690;DHT22;22676;51.120;3.702;2023-01-10T06:00:53;22.70;43.90
36690;DHT22;22676;51.120;3.702;2023-01-10T06:03:18;22.80;43.60
36690;DHT22;22676;51.120;3.702;2023-01-10T06:05:44;22.90;43.40
36690;DHT22;22676;51.120;3.702;2023-01-10T06:08:09;23.00;43.60
36690;DHT22;22676;51.120;3.702;2023-01-10T06:10:35;23.00;43.20
36690;DHT22;22676;51.120;3.702;2023-01-10T06:13:00;23.10;42.90
36690;DHT22;22676;51.120;3.702;2023-01-10T06:15:26;23.20;42.70
36690;DHT22;22676;51.120;3.702;2023-01-10T06:17:52;23.20;42.70
36690;DHT22;22676;51.120;3.702;2023-01-10T06:20:18;23.10;43.70
36690;DHT22;22676;51.120;3.702;2023-01-10T06:22:43;22.90;43.90
36690;DHT22;22676;51.120;3.702;2023-01-10T06:25:09;22.90;44.10
36690;DHT22;22676;51.120;3.702;2023-01-10T06:27:37;23.00;44.10
36690;DHT22;22676;51.120;3.702;2023-01-10T06:30:03;23.10;44.10
36690;DHT22;22676;51.120;3.702;2023-01-10T06:32:28;23.10;44.00
36690;DHT22;22676;51.120;3.702;2023-01-10T06:34:54;23.10;43.80
36690;DHT22;22676;51.120;3.702;2023-01-10T06:37:19;23.10;43.70
36690;DHT22;22676;51.120;3.702;2023-01-10T06:39:45;23.20;43.70
36690;DHT22;22676;51.120;3.702;2023-01-10T06:42:11;23.20;43.60
36690;DHT22;22676;51.120;3.702;2023-01-10T06:44:36;23.30;43.60
36690;DHT22;22676;51.120;3.702;2023-01-10T06:47:02;23.40;43.60
36690;DHT22;22676;51.120;3.702;2023-01-10T06:49:27;23.50;43.40
36690;DHT22;22676;51.120;3.702;2023-01-10T06:51:54;23.50;43.30
36690;DHT22;22676;51.120;3.702;2023-01-10T06:54:19;23.60;43.10
36690;DHT22;22676;51.120;3.702;2023-01-10T06:56:46;23.60;43.10
36690;DHT22;22676;51.120;3.702;2023-01-10T06:59:11;23.60;42.90
36690;DHT22;22676;51.120;3.702;2023-01-10T07:01:37;23.70;42.80
36690;DHT22;22676;51.120;3.702;2023-01-10T07:04:03;23.80;42.60
36690;DHT22;22676;51.120;3.702;2023-01-10T07:06:28;23.80;42.50
36690;DHT22;22676;51.120;3.702;2023-01-10T07:08:54;23.90;42.30
36690;DHT22;22676;51.120;3.702;2023-01-10T07:11:20;24.00;42.30
36690;DHT22;22676;51.120;3.702;2023-01-10T07:13:45;24.00;42.10
36690;DHT22;22676;51.120;3.702;2023-01-10T07:16:12;24.00;41.80
36690;DHT22;22676;51.120;3.702;2023-01-10T07:18:39;24.10;41.30
36690;DHT22;22676;51.120;3.702;2023-01-10T07:21:05;24.20;41.00
36690;DHT22;22676;51.120;3.702;2023-01-10T07:23:31;24.10;41.00
36690;DHT22;22676;51.120;3.702;2023-01-10T07:25:57;24.20;41.10
36690;DHT22;22676;51.120;3.702;2023-01-10T07:28:23;24.20;41.00
36690;DHT22;22676;51.120;3.702;2023-01-10T07:30:48;24.20;41.00
36690;DHT22;22676;51.120;3.702;2023-01-10T07:33:14;24.20;41.10
36690;DHT22;22676;51.120;3.702;2023-01-10T07:35:40;24.20;41.30
36690;DHT22;22676;51.120;3.702;2023-01-10T07:38:05;24.10;41.10
36690;DHT22;22676;51.120;3.702;2023-01-10T07:40:31;24.10;41.20
36690;DHT22;22676;51.120;3.702;2023-01-10T07:43:00;24.00;41.20
36690;DHT22;22676;51.120;3.702;2023-01-10T07:45:26;24.00;41.30
36690;DHT22;22676;51.120;3.702;2023-01-10T07:47:58;23.90;41.40
36690;DHT22;22676;51.120;3.702;2023-01-10T07:50:25;23.80;41.40
36690;DHT22;22676;51.120;3.702;2023-01-10T07:52:51;23.90;41.40
36690;DHT22;22676;51.120;3.702;2023-01-10T07:55:16;23.90;41.40
36690;DHT22;22676;51.120;3.702;2023-01-10T07:57:42;23.80;41.40
36690;DHT22;22676;51.120;3.702;2023-01-10T08:00:08;23.80;41.50
36690;DHT22;22676;51.120;3.702;2023-01-10T08:02:33;23.80;41.50
36690;DHT22;22676;51.120;3.702;2023-01-10T08:04:59;23.80;41.40
36690;DHT22;22676;51.120;3.702;2023-01-10T08:07:24;23.90;41.40
36690;DHT22;22676;51.120;3.702;2023-01-10T08:09:50;23.80;41.50
36690;DHT22;22676;51.120;3.702;2023-01-10T08:12:15;23.80;41.60
36690;DHT22;22676;51.120;3.702;2023-01-10T08:14:41;23.70;41.50
36690;DHT22;22676;51.120;3.702;2023-01-10T08:17:06;23.70;41.30
36690;DHT22;22676;51.120;3.702;2023-01-10T08:19:32;23.80;41.50
36690;DHT22;22676;51.120;3.702;2023-01-10T08:21:58;23.80;41.30
36690;DHT22;22676;51.120;3.702;2023-01-10T08:24:24;23.80;41.50
36690;DHT22;22676;51.120;3.702;2023-01-10T08:26:50;23.70;41.60
36690;DHT22;22676;51.120;3.702;2023-01-10T08:29:16;23.70;41.60
36690;DHT22;22676;51.120;3.702;2023-01-10T08:31:41;23.70;41.60
36690;DHT22;22676;51.120;3.702;2023-01-10T08:34:07;23.60;41.60
36690;DHT22;22676;51.120;3.702;2023-01-10T08:36:32;23.60;41.70
36690;DHT22;22676;51.120;3.702;2023-01-10T08:38:58;23.60;41.60
36690;DHT22;22676;51.120;3.702;2023-01-10T08:41:23;23.40;41.90
36690;DHT22;22676;51.120;3.702;2023-01-10T08:43:49;23.20;42.10
36690;DHT22;22676;51.120;3.702;2023-01-10T08:46:15;23.30;42.20
36690;DHT22;22676;51.120;3.702;2023-01-10T08:48:40;23.40;42.10
36690;DHT22;22676;51.120;3.702;2023-01-10T08:51:07;23.40;42.10
36690;DHT22;22676;51.120;3.702;2023-01-10T08:53:33;23.40;42.00
36690;DHT22;22676;51.120;3.702;2023-01-10T08:55:59;23.50;42.00
36690;DHT22;22676;51.120;3.702;2023-01-10T08:58:24;23.30;42.30
36690;DHT22;22676;51.120;3.702;2023-01-10T09:00:50;23.20;42.30
36690;DHT22;22676;51.120;3.702;2023-01-10T09:03:15;23.20;42.40
36690;DHT22;22676;51.120;3.702;2023-01-10T09:05:41;23.20;42.20
36690;DHT22;22676;51.120;3.702;2023-01-10T09:08:06;23.30;42.20
36690;DHT22;22676;51.120;3.702;2023-01-10T09:10:32;23.40;42.10
36690;DHT22;22676;51.120;3.702;2023-01-10T09:12:58;23.40;42.10
36690;DHT22;22676;51.120;3.702;2023-01-10T09:15:30;23.10;41.90
36690;DHT22;22676;51.120;3.702;2023-01-10T09:17:56;23.10;42.60
36690;DHT22;22676;51.120;3.702;2023-01-10T09:20:23;23.10;42.60
36690;DHT22;22676;51.120;3.702;2023-01-10T09:22:49;23.30;42.40
36690;DHT22;22676;51.120;3.702;2023-01-10T09:25:14;23.30;42.30
36690;DHT22;22676;51.120;3.702;2023-01-10T09:27:40;23.30;42.20
36690;DHT22;22676;51.120;3.702;2023-01-10T09:30:05;23.10;42.50
36690;DHT22;22676;51.120;3.702;2023-01-10T09:32:31;23.00;42.70
36690;DHT22;22676;51.120;3.702;2023-01-10T09:34:57;23.10;42.40
36690;DHT22;22676;51.120;3.702;2023-01-10T09:37:22;23.20;42.50
36690;DHT22;22676;51.120;3.702;2023-01-10T09:39:48;23.20;42.30
36690;DHT22;22676;51.120;3.702;2023-01-10T09:44:48;23.00;42.50
36690;DHT22;22676;51.120;3.702;2023-01-10T09:47:28;22.90;42.80
36690;DHT22;22676;51.120;3.702;2023-01-10T09:52:33;23.00;42.70
36690;DHT22;22676;51.120;3.702;2023-01-10T09:55:03;23.20;42.40
36690;DHT22;22676;51.120;3.702;2023-01-10T09:57:30;23.20;42.30
36690;DHT22;22676;51.120;3.702;2023-01-10T09:59:56;23.00;42.40
36690;DHT22;22676;51.120;3.702;2023-01-10T10:02:22;23.00;42.30
36690;DHT22;22676;51.120;3.702;2023-01-10T10:07:22;23.10;42.60
36690;DHT22;22676;51.120;3.702;2023-01-10T10:09:47;23.20;42.20
36690;DHT22;22676;51.120;3.702;2023-01-10T10:12:20;23.30;42.20
36690;DHT22;22676;51.120;3.702;2023-01-10T10:17:40;23.10;42.00
36690;DHT22;22676;51.120;3.702;2023-01-10T10:25:33;23.20;42.10
36690;DHT22;22676;51.120;3.702;2023-01-10T10:28:44;23.30;42.10
36690;DHT22;22676;51.120;3.702;2023-01-10T10:31:42;23.30;42.00
36690;DHT22;22676;51.120;3.702;2023-01-10T10:33:45;23.30;42.00
36690;DHT22;22676;51.120;3.702;2023-01-10T10:36:19;23.10;42.50
36690;DHT22;22676;51.120;3.702;2023-01-10T10:38:46;23.00;42.80
36690;DHT22;22676;51.120;3.702;2023-01-10T10:41:17;23.00;42.50
36690;DHT22;22676;51.120;3.702;2023-01-10T10:43:47;23.10;42.50
36690;DHT22;22676;51.120;3.702;2023-01-10T10:46:14;23.20;42.30
36690;DHT22;22676;51.120;3.702;2023-01-10T10:51:13;23.30;42.30
36690;DHT22;22676;51.120;3.702;2023-01-10T10:53:41;23.30;41.90
36690;DHT22;22676;51.120;3.702;2023-01-10T10:56:09;23.00;42.10
36690;DHT22;22676;51.120;3.702;2023-01-10T10:58:36;23.00;42.30
36690;DHT22;22676;51.120;3.702;2023-01-10T11:01:02;23.00;42.20
36690;DHT22;22676;51.120;3.702;2023-01-10T11:06:13;23.30;41.90
36690;DHT22;22676;51.120;3.702;2023-01-10T11:08:40;23.40;41.80
36690;DHT22;22676;51.120;3.702;2023-01-10T11:11:21;23.50;41.70
36690;DHT22;22676;51.120;3.702;2023-01-10T11:19:07;23.00;42.30
36690;DHT22;22676;51.120;3.702;2023-01-10T11:21:33;23.00;42.20
36690;DHT22;22676;51.120;3.702;2023-01-10T11:23:59;23.10;42.00
36690;DHT22;22676;51.120;3.702;2023-01-10T11:26:26;23.20;41.90
36690;DHT22;22676;51.120;3.702;2023-01-10T11:28:54;23.30;41.80
36690;DHT22;22676;51.120;3.702;2023-01-10T11:31:27;23.50;41.60
36690;DHT22;22676;51.120;3.702;2023-01-10T11:33:54;23.40;41.50
36690;DHT22;22676;51.120;3.702;2023-01-10T11:36:19;23.10;41.90
36690;DHT22;22676;51.120;3.702;2023-01-10T11:38:57;23.00;42.30
36690;DHT22;22676;51.120;3.702;2023-01-10T11:41:24;22.90;43.00
36690;DHT22;22676;51.120;3.702;2023-01-10T11:43:51;23.00;42.40
36690;DHT22;22676;51.120;3.702;2023-01-10T11:46:17;23.20;42.00
36690;DHT22;22676;51.120;3.702;2023-01-10T11:48:51;23.30;41.90
36690;DHT22;22676;51.120;3.702;2023-01-10T11:51:27;23.30;41.90
36690;DHT22;22676;51.120;3.702;2023-01-10T11:53:57;23.40;41.80
36690;DHT22;22676;51.120;3.702;2023-01-10T11:56:27;23.20;42.00
36690;DHT22;22676;51.120;3.702;2023-01-10T11:58:54;22.90;42.70
36690;DHT22;22676;51.120;3.702;2023-01-10T12:03:51;23.00;42.30
36690;DHT22;22676;51.120;3.702;2023-01-10T12:06:17;23.20;42.10
36690;DHT22;22676;51.120;3.702;2023-01-10T12:08:42;23.30;41.90
36690;DHT22;22676;51.120;3.702;2023-01-10T12:13:46;23.40;41.80
36690;DHT22;22676;51.120;3.702;2023-01-10T12:18:43;23.00;42.60
36690;DHT22;22676;51.120;3.702;2023-01-10T12:21:09;23.00;42.70
36690;DHT22;22676;51.120;3.702;2023-01-10T12:23:37;23.00;42.40
36690;DHT22;22676;51.120;3.702;2023-01-10T12:26:06;23.20;42.10
36690;DHT22;22676;51.120;3.702;2023-01-10T12:28:32;23.40;41.80
36690;DHT22;22676;51.120;3.702;2023-01-10T12:30:58;23.50;41.60
36690;DHT22;22676;51.120;3.702;2023-01-10T12:33:26;23.50;41.50
36690;DHT22;22676;51.120;3.702;2023-01-10T12:35:55;23.30;41.80
36690;DHT22;22676;51.120;3.702;2023-01-10T12:38:28;23.20;42.40
36690;DHT22;22676;51.120;3.702;2023-01-10T12:41:17;23.10;42.20
36690;DHT22;22676;51.120;3.702;2023-01-10T12:44:03;23.10;42.60
36690;DHT22;22676;51.120;3.702;2023-01-10T12:46:58;23.10;42.40
36690;DHT22;22676;51.120;3.702;2023-01-10T12:49:23;23.40;41.90
36690;DHT22;22676;51.120;3.702;2023-01-10T12:51:50;23.40;41.80
36690;DHT22;22676;51.120;3.702;2023-01-10T12:54:18;23.40;41.60
36690;DHT22;22676;51.120;3.702;2023-01-10T12:56:44;23.30;41.80
36690;DHT22;22676;51.120;3.702;2023-01-10T12:59:14;23.20;41.90
36690;DHT22;22676;51.120;3.702;2023-01-10T13:01:42;23.20;42.10
36690;DHT22;22676;51.120;3.702;2023-01-10T13:04:09;23.10;42.10
36690;DHT22;22676;51.120;3.702;2023-01-10T13:06:36;23.20;42.10
36690;DHT22;22676;51.120;3.702;2023-01-10T13:09:04;23.40;41.70
36690;DHT22;22676;51.120;3.702;2023-01-10T13:11:32;23.40;41.70
36690;DHT22;22676;51.120;3.702;2023-01-10T13:14:00;23.50;41.40
36690;DHT22;22676;51.120;3.702;2023-01-10T13:19:03;23.40;41.50
36690;DHT22;22676;51.120;3.702;2023-01-10T13:21:29;23.30;41.30
36690;DHT22;22676;51.120;3.702;2023-01-10T13:24:02;23.20;41.40
36690;DHT22;22676;51.120;3.702;2023-01-10T13:29:26;23.20;41.60
36690;DHT22;22676;51.120;3.702;2023-01-10T13:31:53;23.00;42.00
36690;DHT22;22676;51.120;3.702;2023-01-10T13:34:30;23.10;41.90
36690;DHT22;22676;51.120;3.702;2023-01-10T13:36:57;23.30;41.70
36690;DHT22;22676;51.120;3.702;2023-01-10T13:39:32;23.50;41.30
36690;DHT22;22676;51.120;3.702;2023-01-10T13:57:56;23.20;41.80
36690;DHT22;22676;51.120;3.702;2023-01-10T14:00:23;23.30;41.90
36690;DHT22;22676;51.120;3.702;2023-01-10T14:03:08;23.30;41.90
36690;DHT22;22676;51.120;3.702;2023-01-10T14:05:53;23.40;41.80
36690;DHT22;22676;51.120;3.702;2023-01-10T14:08:18;23.40;41.60
36690;DHT22;22676;51.120;3.702;2023-01-10T14:10:45;23.60;41.50
36690;DHT22;22676;51.120;3.702;2023-01-10T14:13:17;23.70;41.20
36690;DHT22;22676;51.120;3.702;2023-01-10T14:15:44;23.80;41.00
36690;DHT22;22676;51.120;3.702;2023-01-10T14:20:42;23.60;41.30
36690;DHT22;22676;51.120;3.702;2023-01-10T14:25:39;23.50;41.60
36690;DHT22;22676;51.120;3.702;2023-01-10T14:28:14;23.50;41.80
36690;DHT22;22676;51.120;3.702;2023-01-10T14:30:41;23.50;41.60
36690;DHT22;22676;51.120;3.702;2023-01-10T14:33:18;23.60;41.50
36690;DHT22;22676;51.120;3.702;2023-01-10T14:35:45;23.60;41.40
36690;DHT22;22676;51.120;3.702;2023-01-10T14:38:33;23.60;41.40
36690;DHT22;22676;51.120;3.702;2023-01-10T14:40:58;23.70;41.40
36690;DHT22;22676;51.120;3.702;2023-01-10T14:43:26;23.70;41.40
36690;DHT22;22676;51.120;3.702;2023-01-10T14:49:00;23.80;41.20
36690;DHT22;22676;51.120;3.702;2023-01-10T14:53:39;23.70;41.20
36690;DHT22;22676;51.120;3.702;2023-01-10T14:56:18;23.70;41.10
36690;DHT22;22676;51.120;3.702;2023-01-10T14:58:44;23.80;41.10
36690;DHT22;22676;51.120;3.702;2023-01-10T15:01:10;23.80;40.90
36690;DHT22;22676;51.120;3.702;2023-01-10T15:03:35;23.80;40.90
36690;DHT22;22676;51.120;3.702;2023-01-10T15:06:09;23.80;40.90
36690;DHT22;22676;51.120;3.702;2023-01-10T15:08:34;23.80;41.00
36690;DHT22;22676;51.120;3.702;2023-01-10T15:11:03;23.80;41.00
36690;DHT22;22676;51.120;3.702;2023-01-10T15:13:32;23.80;41.10
36690;DHT22;22676;51.120;3.702;2023-01-10T15:16:00;23.80;41.20
36690;DHT22;22676;51.120;3.702;2023-01-10T15:20:51;23.80;41.10
36690;DHT22;22676;51.120;3.702;2023-01-10T15:23:17;23.80;41.10
36690;DHT22;22676;51.120;3.702;2023-01-10T15:25:44;23.70;41.20
36690;DHT22;22676;51.120;3.702;2023-01-10T15:28:16;23.70;41.20
36690;DHT22;22676;51.120;3.702;2023-01-10T15:30:43;23.70;41.40
36690;DHT22;22676;51.120;3.702;2023-01-10T15:33:18;23.70;41.60
36690;DHT22;22676;51.120;3.702;2023-01-10T15:35:47;23.70;41.60
36690;DHT22;22676;51.120;3.702;2023-01-10T15:38:13;23.80;41.50
36690;DHT22;22676;51.120;3.702;2023-01-10T15:40:39;23.80;41.60
36690;DHT22;22676;51.120;3.702;2023-01-10T15:43:27;23.80;41.30
36690;DHT22;22676;51.120;3.702;2023-01-10T15:45:51;23.80;41.30
36690;DHT22;22676;51.120;3.702;2023-01-10T15:48:24;23.80;41.50
36690;DHT22;22676;51.120;3.702;2023-01-10T15:56:15;23.80;41.70
36690;DHT22;22676;51.120;3.702;2023-01-10T15:58:43;23.80;41.70
36690;DHT22;22676;51.120;3.702;2023-01-10T16:01:11;23.80;41.60
36690;DHT22;22676;51.120;3.702;2023-01-10T16:03:38;23.90;41.80
36690;DHT22;22676;51.120;3.702;2023-01-10T16:06:15;23.90;41.70
36690;DHT22;22676;51.120;3.702;2023-01-10T16:08:45;24.00;41.60
36690;DHT22;22676;51.120;3.702;2023-01-10T16:11:22;24.00;41.70
36690;DHT22;22676;51.120;3.702;2023-01-10T16:14:06;24.00;41.50
36690;DHT22;22676;51.120;3.702;2023-01-10T16:16:32;24.10;41.60
36690;DHT22;22676;51.120;3.702;2023-01-10T16:18:57;24.10;41.70
36690;DHT22;22676;51.120;3.702;2023-01-10T16:21:23;24.10;41.60
36690;DHT22;22676;51.120;3.702;2023-01-10T16:23:50;24.10;41.60
36690;DHT22;22676;51.120;3.702;2023-01-10T16:26:16;24.10;41.70
36690;DHT22;22676;51.120;3.702;2023-01-10T16:28:42;24.10;41.80
36690;DHT22;22676;51.120;3.702;2023-01-10T16:31:09;24.00;41.90
36690;DHT22;22676;51.120;3.702;2023-01-10T16:33:35;24.10;41.70
36690;DHT22;22676;51.120;3.702;2023-01-10T16:36:01;24.10;41.70
36690;DHT22;22676;51.120;3.702;2023-01-10T16:38:28;24.10;41.70
36690;DHT22;22676;51.120;3.702;2023-01-10T16:40:58;24.00;42.00
36690;DHT22;22676;51.120;3.702;2023-01-10T16:43:24;24.00;42.00
36690;DHT22;22676;51.120;3.702;2023-01-10T16:45:52;24.00;41.90
36690;DHT22;22676;51.120;3.702;2023-01-10T16:48:19;24.00;41.90
36690;DHT22;22676;51.120;3.702;2023-01-10T16:50:45;23.90;42.10
36690;DHT22;22676;51.120;3.702;2023-01-10T16:53:15;23.90;42.20
36690;DHT22;22676;51.120;3.702;2023-01-10T16:58:07;23.60;42.60
36690;DHT22;22676;51.120;3.702;2023-01-10T17:00:32;23.50;42.40
36690;DHT22;22676;51.120;3.702;2023-01-10T17:02:58;23.30;42.90
36690;DHT22;22676;51.120;3.702;2023-01-10T17:05:25;23.30;42.50
36690;DHT22;22676;51.120;3.702;2023-01-10T17:07:51;23.30;42.40
36690;DHT22;22676;51.120;3.702;2023-01-10T17:10:16;23.30;42.40
36690;DHT22;22676;51.120;3.702;2023-01-10T17:12:42;23.40;42.20
36690;DHT22;22676;51.120;3.702;2023-01-10T17:15:10;23.40;42.60
36690;DHT22;22676;51.120;3.702;2023-01-10T17:17:37;23.30;42.20
36690;DHT22;22676;51.120;3.702;2023-01-10T17:20:02;23.40;42.20
36690;DHT22;22676;51.120;3.702;2023-01-10T17:22:28;23.40;42.20
36690;DHT22;22676;51.120;3.702;2023-01-10T17:24:54;23.40;42.30
36690;DHT22;22676;51.120;3.702;2023-01-10T17:27:20;23.50;42.20
36690;DHT22;22676;51.120;3.702;2023-01-10T17:29:46;23.60;42.70